Airfield :
LOGIN :

Register | Disclaimer

   EN    FR    IT 

 










Legend :    VFR   Marginal VFR   IFR   Intensive IFR   Very Intensive IFR
Visi :
Ceiling :
>= 8 km
>= 3000ft
5 to 8 km
1000 to 3000 ft
1500m to 5 km
500 to 1000 ft
800 to 1500m
200 to 500 ft
< 800m
< 200 ft
Symbols :   Thunderstorms  Fog  Heavy snow  Heavy precipitations  Wind > 20 kt
SIGMETs :     Misc.  Thunderstorms  Icing  Turbulence  Mountain Waves  Volcanic Ashes






- Airport Elevation : 124 ft
- IATA code : NHT


EGWU - RAF Northolt

CURRENT METAR :
  • 041250Z 22010KT 9999 FEW016 BKN021 BKN034 18/13 Q1016 BECMG FEW021 RMK WHT BECMG BLU

EXPIRED METARs :
  • 041220Z 22009KT 9999 SCT021 BKN034 17/13 Q1016 TEMPO FEW021 BKN034 RMK WHT TEMPO BLU
  • 041150Z 21012KT 9999 SCT021 BKN034 17/12 Q1016 TEMPO FEW020 BKN034 RMK WHT TEMPO BLU
  • 041120Z 22009KT 9999 FEW021 BKN024 BKN032 17/13 Q1016 BECMG FEW024
  • 041050Z 22010KT 9999 BKN020 BKN028 17/12 Q1017 BECMG FEW020 RMK WHT BECMG BLU

TAF AMD TAF EGWU
Valid from the 04 at 12:00 until the 05 at 06:00 UTC


041108Z 0412/0506 22012KT 9999 FEW022 BKN028
TEMPO 0412/0506 SCT022



MET'MAP, your aeronautical weather chart ! - Copyright ORBIFLY December 2007 - Disclaimer

ORBIFLY MET'MAP TEAM :

Programming & Development : Alexandra Zaïnal
Original concept : Baudouin d'Aumeries
Technical & hardware support : Manuel Goepfert
Assistance : Marc-Olivier Méhu




SOURCES & CREDITS :

   NOAA